createdAt,value
2023-05-09T04:28:12.030Z,87.04
2023-05-09T04:32:15.891Z,87.04
2023-05-09T04:36:18.777Z,87.59
2023-05-09T04:40:21.915Z,86.98
2023-05-09T04:44:25.391Z,85.40
2023-05-09T04:48:28.659Z,83.93
2023-05-09T04:52:31.363Z,81.19
2023-05-09T04:56:34.542Z,79.83
2023-05-09T05:00:37.349Z,78.43
2023-05-09T05:04:41.970Z,78.90
2023-05-09T05:08:45.186Z,77.81
2023-05-09T05:12:48.333Z,77.69
2023-05-09T05:16:51.615Z,76.41
2023-05-09T05:20:54.868Z,75.29
2023-05-09T05:24:58.057Z,76.14
2023-05-09T05:29:01.218Z,73.84
2023-05-09T05:33:04.254Z,73.12
2023-05-09T05:37:08.285Z,73.37
2023-05-09T05:41:11.875Z,71.76
2023-05-09T05:45:15.844Z,71.40
2023-05-09T05:49:22.898Z,70.20
2023-05-09T05:53:27.504Z,70.31
2023-05-09T05:57:35.457Z,69.11
2023-05-09T06:01:40.933Z,68.15
2023-05-09T06:05:45.972Z,66.74
2023-05-09T06:09:49.749Z,68.04
2023-05-09T06:13:56.116Z,65.77
2023-05-09T06:17:59.913Z,67.01
2023-05-09T06:22:03.946Z,66.92
2023-05-09T06:26:07.273Z,65.44
2023-05-09T06:30:24.873Z,65.55
2023-05-09T06:34:28.762Z,65.37
2023-05-09T06:38:31.900Z,65.57
2023-05-09T06:42:34.705Z,63.43
2023-05-09T06:46:37.845Z,62.83
2023-05-09T06:50:40.979Z,63.69
2023-05-09T06:54:44.685Z,62.80
2023-05-09T06:58:47.894Z,61.28
2023-05-09T07:03:09.519Z,60.00
2023-05-09T07:07:13.802Z,60.54
2023-05-09T07:11:16.867Z,59.18
2023-05-09T07:15:32.507Z,60.62
2023-05-09T07:19:43.157Z,56.79
2023-05-09T07:23:46.180Z,56.38
2023-05-09T07:27:49.334Z,56.46
2023-05-09T07:31:52.253Z,55.39
2023-05-09T07:36:07.658Z,55.15
2023-05-09T07:40:23.959Z,55.91
2023-05-09T07:44:28.063Z,53.98
2023-05-09T07:52:56.061Z,54.13
2023-05-09T07:57:00.071Z,54.02
2023-05-09T08:01:03.240Z,51.67
2023-05-09T08:05:06.944Z,51.10
2023-05-09T08:09:10.431Z,50.76
2023-05-09T08:13:13.539Z,51.18
2023-05-09T08:17:17.150Z,51.25
2023-05-09T08:21:22.203Z,48.34
2023-05-09T08:25:25.053Z,48.88
2023-05-09T08:29:29.147Z,47.89
2023-05-09T08:33:31.902Z,49.79
2023-05-09T08:37:37.280Z,47.34
2023-05-09T08:41:40.209Z,46.29
2023-05-09T08:45:47.955Z,46.24
2023-05-09T08:49:51.442Z,45.23
2023-05-09T08:53:54.769Z,46.31
2023-05-09T08:57:58.174Z,45.66
2023-05-09T09:02:01.647Z,44.50
2023-05-09T09:06:04.818Z,43.48
2023-05-09T09:10:09.736Z,43.57
2023-05-09T09:14:16.052Z,44.18
2023-05-09T09:18:24.120Z,41.58
2023-05-09T09:22:35.934Z,43.26
2023-05-09T09:26:52.382Z,40.97
2023-05-09T09:31:18.997Z,40.53
2023-05-09T09:35:23.291Z,43.01
2023-05-09T09:39:27.074Z,42.21
2023-05-09T09:43:38.150Z,43.02
2023-05-09T09:47:46.700Z,42.03
2023-05-09T09:51:59.999Z,42.19
2023-05-09T09:56:25.457Z,39.11
2023-05-09T10:00:34.864Z,41.58
2023-05-09T10:04:54.159Z,39.86
2023-05-09T10:09:14.475Z,40.19
2023-05-09T10:13:30.557Z,39.99
2023-05-09T10:17:56.828Z,38.25
2023-05-09T10:22:12.863Z,39.30
2023-05-09T10:26:46.199Z,37.46
2023-05-09T10:31:13.075Z,35.98
2023-05-09T10:35:20.028Z,34.00
2023-05-09T10:39:24.236Z,34.15
2023-05-09T10:43:27.393Z,36.34
2023-05-09T10:47:39.879Z,37.07
2023-05-09T10:51:42.813Z,34.87
2023-05-09T10:56:05.411Z,38.24
2023-05-09T11:00:09.032Z,35.48
2023-05-09T11:04:17.340Z,34.51
2023-05-09T11:08:23.656Z,37.84
2023-05-09T11:12:26.701Z,36.87
2023-05-09T11:16:29.541Z,37.09
2023-05-09T11:20:35.746Z,38.98
2023-05-09T11:24:38.821Z,39.64
2023-05-09T11:28:41.855Z,37.16
2023-05-09T11:32:55.762Z,39.84
2023-05-09T11:37:13.535Z,38.58
2023-05-09T11:41:16.311Z,35.58
2023-05-09T11:45:19.672Z,36.28
2023-05-09T11:49:22.478Z,37.09
2023-05-09T11:53:25.547Z,37.81
2023-05-09T11:57:29.508Z,39.67
2023-05-09T12:01:32.574Z,38.81
2023-05-09T12:05:40.345Z,41.39
2023-05-09T12:09:44.099Z,41.24
2023-05-09T12:13:49.778Z,37.53
2023-05-09T12:18:05.270Z,38.24
2023-05-09T12:22:14.404Z,38.36
2023-05-09T12:26:17.881Z,38.39
2023-05-09T12:30:28.835Z,39.88
2023-05-09T12:34:49.208Z,41.84
2023-05-09T12:39:13.857Z,37.88
2023-05-09T12:43:18.202Z,37.29
2023-05-09T12:47:21.298Z,36.02
2023-05-09T12:51:24.120Z,38.48
2023-05-09T12:55:28.082Z,36.49
2023-05-09T12:59:30.863Z,33.86
2023-05-09T13:03:38.191Z,36.59
2023-05-09T13:07:52.443Z,38.00
2023-05-09T13:11:55.614Z,36.93
2023-05-09T13:15:58.305Z,38.94
2023-05-09T13:20:01.860Z,41.92
2023-05-09T13:24:06.195Z,40.23
2023-05-09T13:28:09.389Z,40.10
2023-05-09T13:32:12.091Z,40.82
2023-05-09T13:36:15.103Z,41.52
2023-05-09T13:40:18.046Z,37.64
2023-05-09T13:44:21.217Z,36.26
2023-05-09T13:48:24.504Z,37.92
2023-05-09T13:52:28.570Z,40.73
2023-05-09T13:56:31.365Z,41.38
2023-05-09T14:00:34.658Z,41.01
2023-05-09T14:04:37.888Z,40.56
2023-05-09T14:08:40.588Z,41.04
2023-05-09T14:12:47.496Z,42.15
2023-05-09T14:16:51.918Z,43.07
2023-05-09T14:20:54.983Z,44.01
2023-05-09T14:24:57.715Z,45.71
2023-05-09T14:29:01.056Z,44.23
2023-05-09T14:33:03.810Z,42.64
2023-05-09T14:37:13.689Z,38.62
2023-05-09T14:41:16.565Z,39.29
2023-05-09T14:45:19.716Z,42.09
2023-05-09T14:49:22.483Z,37.41
2023-05-09T14:53:26.184Z,35.93
2023-05-09T14:57:29.080Z,37.90
2023-05-09T15:01:32.302Z,40.10
2023-05-09T15:05:35.039Z,41.58
2023-05-09T15:09:38.436Z,40.66
